Airfield :
LOGIN :

Register | Disclaimer

   EN    FR    IT 

 










Legend :    VFR   Marginal VFR   IFR   Intensive IFR   Very Intensive IFR
Visi :
Ceiling :
>= 8 km
>= 3000ft
5 to 8 km
1000 to 3000 ft
1500m to 5 km
500 to 1000 ft
800 to 1500m
200 to 500 ft
< 800m
< 200 ft
Symbols :   Thunderstorms  Fog  Heavy snow  Heavy precipitations  Wind > 20 kt
SIGMETs :     Misc.  Thunderstorms  Icing  Turbulence  Mountain Waves  Volcanic Ashes






- Airport Elevation : 364 ft


LFAQ - Albert Bray

CURRENT METAR :
  • 231100Z AUTO 12009KT 9999 -RA OVC006 03/02 Q0993 TEMPO 3000 RASN BKN003 BKN020TCU

EXPIRED METARs :
  • 231030Z AUTO 12008KT 9999 OVC006 03/02 Q0993 TEMPO 3000 RASN BKN003 BKN020TCU
  • 231000Z AUTO 14011KT 9999 OVC006 03/02 Q0993 TEMPO 3000 RASN BKN003 BKN020TCU
  • 230930Z AUTO 16010KT 9999 OVC005 02/02 Q0993 TEMPO 3000 RASN BKN003 BKN020TCU
  • 230900Z AUTO 15011KT 4500 BR OVC003 02/02 Q0994 TEMPO RA BKN006 OVC020
  • 230830Z AUTO 13009KT 9999 BKN005 OVC100 02/02 Q0994 TEMPO 3000 RA

TAF AMD TAF LFAQ
Valid from the 23 at 09:00 until the 23 at 18:00 UTC


230917Z 2309/2318 13010KT 9999 BKN012 OVC030
TEMPO 2309/2317 3000 RASN BKN003 BKN020TCU
BECMG 2315/2317 32010KT



MET'MAP, your aeronautical weather chart ! - Copyright ORBIFLY December 2007 - Disclaimer

ORBIFLY MET'MAP TEAM :

Programming & Development : Alexandra Zaïnal
Concept & original design : Baudouin d'Aumeries
Assistance for programming : Marc-Olivier Méhu
Technical & hardware support : Manuel Goepfert

Contact : metmap@orbifly.com




SOURCES & CREDITS :

   NOAA